Time;durP1;ratioP1;P1;durP2;ratioP2;P2;SDS_P1;SDS_P2;PMS_P1;PMS_P2;Temp;Humidity;BMP_temperature;BMP_pressure;BME280_temperature;BME280_humidity;BME280_pressure;Samples;Min_cycle;Max_cycle;Signal;HPM_P1;HPM_P2
2023/08/14 00:02:47;;;;;;;8.13;4.05;;;;;;;14.39;50.51;97617.81;6222701;28;20046;-75
2023/08/14 00:05:49;;;;;;;5.60;4.05;;;;;;;14.41;50.60;97618.56;6233043;28;20052;-75
2023/08/14 00:08:52;;;;;;;;;;;;;;;14.33;50.07;97623.53;6227533;28;20041;-75
2023/08/14 00:11:53;;;;;;;6.85;3.03;;;;;;;14.34;50.35;97615.47;6226786;28;19929;-75
2023/08/14 00:14:54;;;;;;;11.70;3.53;;;;;;;14.36;50.20;97612.75;6231648;28;20364;-75
2023/08/14 00:17:56;;;;;;;5.40;3.50;;;;;;;14.44;50.34;97620.16;6222202;28;20053;-75
2023/08/14 00:20:57;;;;;;;8.20;5.03;;;;;;;14.47;50.45;97614.66;6224214;28;20169;-76
2023/08/14 00:24:01;;;;;;;;;;;;;;;14.32;50.41;97617.41;6232911;28;20108;-75
2023/08/14 00:27:09;;;;;;;12.18;6.03;;;;;;;14.24;51.30;97621.50;6253082;28;19981;-74
2023/08/14 00:30:10;;;;;;;13.52;6.43;;;;;;;14.12;51.85;97617.88;6247730;28;20039;-75
2023/08/14 00:33:14;;;;;;;15.10;6.65;;;;;;;14.01;52.21;97618.63;6225483;28;20445;-75
2023/08/14 00:36:19;;;;;;;11.57;5.88;;;;;;;13.91;52.24;97626.31;6230630;28;20532;-76
2023/08/14 00:39:24;;;;;;;13.57;6.70;;;;;;;13.84;52.93;97622.41;6233849;28;20038;-75
2023/08/14 00:42:29;;;;;;;10.10;6.03;;;;;;;13.81;52.87;97621.72;6228638;28;20040;-74
2023/08/14 00:45:31;;;;;;;13.70;6.15;;;;;;;13.79;53.04;97613.91;6228022;28;20054;-76
2023/08/14 00:48:32;;;;;;;14.80;6.55;;;;;;;13.78;53.04;97617.50;6228226;28;20288;-74
2023/08/14 00:51:41;;;;;;;9.23;5.38;;;;;;;13.81;53.09;97622.56;6227072;28;20030;-74
2023/08/14 00:54:45;;;;;;;14.70;6.90;;;;;;;13.78;53.16;97638.66;6226117;28;20033;-75
2023/08/14 00:57:56;;;;;;;20.63;7.20;;;;;;;13.79;52.98;97628.94;6223440;28;20045;-75
2023/08/14 01:01:02;;;;;;;13.40;7.83;;;;;;;13.77;52.95;97630.84;6229341;28;20049;-76
2023/08/14 01:04:05;;;;;;;11.00;6.88;;;;;;;13.66;53.08;97634.16;6204405;28;20061;-75
2023/08/14 01:07:13;;;;;;;15.18;6.78;;;;;;;13.60;53.27;97646.00;6225896;28;20046;-75
2023/08/14 01:10:17;;;;;;;10.80;6.25;;;;;;;13.57;53.32;97646.19;6227153;28;20060;-75
2023/08/14 01:13:54;;;;;;;16.05;7.78;;;;;;;13.63;53.12;97642.31;6225044;28;20042;-75
2023/08/14 01:17:07;;;;;;;;;;;;;;;13.58;52.44;97644.41;6224088;28;20045;-75
2023/08/14 01:20:10;;;;;;;12.88;6.38;;;;;;;13.58;53.12;97641.75;6219922;28;19936;-75
2023/08/14 01:23:46;;;;;;;10.65;5.95;;;;;;;13.55;53.15;97648.06;6223603;28;20628;-75
2023/08/14 01:26:49;;;;;;;11.73;5.83;;;;;;;13.35;53.45;97620.28;6225589;28;20143;-75
2023/08/14 01:29:58;;;;;;;13.85;6.32;;;;;;;13.39;54.01;97627.09;6223862;28;20139;-75
2023/08/14 01:33:02;;;;;;;11.77;6.03;;;;;;;13.41;53.88;97638.38;6222331;28;20433;-75
2023/08/14 01:36:18;;;;;;;23.48;13.23;;;;;;;13.48;54.07;97642.34;6226951;28;20049;-75
2023/08/14 01:39:25;;;;;;;13.32;7.18;;;;;;;13.52;54.06;97642.16;6229853;28;20045;-76
2023/08/14 01:42:52;;;;;;;11.65;5.78;;;;;;;13.58;54.02;97642.59;6223258;28;20038;-75
2023/08/14 01:45:56;;;;;;;11.80;6.57;;;;;;;13.63;53.67;97648.44;6210230;28;20433;-75
2023/08/14 01:49:01;;;;;;;;;;;;;;;13.62;53.20;97652.03;6210543;28;20159;-75
2023/08/14 01:52:11;;;;;;;10.52;6.07;;;;;;;13.68;53.89;97642.88;6227367;28;19933;-75
2023/08/14 01:55:17;;;;;;;12.32;6.70;;;;;;;13.77;53.69;97649.34;6225316;28;20050;-75
2023/08/14 01:58:18;;;;;;;19.80;7.90;;;;;;;13.82;53.28;97648.09;6204390;28;20034;-74
2023/08/14 02:01:25;;;;;;;21.90;8.57;;;;;;;13.88;53.52;97639.75;6207122;28;20046;-75
2023/08/14 02:04:31;;;;;;;22.38;8.13;;;;;;;13.97;53.60;97642.75;6207094;28;20045;-75
2023/08/14 02:07:38;;;;;;;15.85;7.75;;;;;;;13.97;53.72;97642.75;6218885;28;20184;-76
2023/08/14 02:10:42;;;;;;;14.70;7.20;;;;;;;13.98;53.54;97641.78;6219696;28;20489;-74
2023/08/14 02:13:46;;;;;;;13.77;7.55;;;;;;;14.05;53.54;97651.88;6228166;28;20041;-76
2023/08/14 02:16:53;;;;;;;18.67;7.50;;;;;;;14.14;53.66;97645.09;6211053;28;20136;-75
2023/08/14 02:19:54;;;;;;;14.82;7.97;;;;;;;14.16;53.53;97643.22;6223520;28;20064;-75
2023/08/14 02:23:00;;;;;;;;;;;;;;;14.19;52.98;97643.00;6231757;28;20037;-74
2023/08/14 02:26:02;;;;;;;19.23;7.95;;;;;;;14.29;53.34;97649.34;6226054;28;20301;-75
2023/08/14 02:29:06;;;;;;;18.48;8.00;;;;;;;14.40;53.25;97645.16;6212867;28;20413;-75
2023/08/14 02:32:08;;;;;;;18.92;7.90;;;;;;;14.53;53.18;97646.03;6232309;28;20045;-76
2023/08/14 02:35:12;;;;;;;16.50;8.27;;;;;;;14.64;53.33;97646.16;6234223;28;20052;-76
2023/08/14 02:38:16;;;;;;;16.77;8.07;;;;;;;14.72;53.37;97641.19;6233619;28;20525;-75
2023/08/14 02:41:20;;;;;;;19.67;8.07;;;;;;;14.89;53.12;97641.78;6226839;28;20037;-74
2023/08/14 02:44:24;;;;;;;19.63;7.53;;;;;;;15.02;52.86;97638.16;6222601;28;20044;-75
2023/08/14 02:47:25;;;;;;;;;;;;;;;15.10;52.26;97650.88;6228680;28;20082;-75
2023/08/14 02:50:28;;;;;;;24.88;9.55;;;;;;;15.24;52.39;97642.78;6231301;28;19926;-76
2023/08/14 02:53:34;;;;;;;18.83;7.13;;;;;;;15.39;52.43;97634.69;6233353;28;20081;-75
2023/08/14 02:56:41;;;;;;;15.43;8.68;;;;;;;15.58;52.24;97637.72;6226643;28;20125;-75
2023/08/14 02:59:48;;;;;;;10.35;6.07;;;;;;;15.76;51.84;97626.72;6223244;28;20038;-76
2023/08/14 03:02:54;;;;;;;15.98;5.75;;;;;;;15.87;51.54;97613.53;6222975;28;20041;-76
2023/08/14 03:06:05;;;;;;;10.55;4.80;;;;;;;16.01;51.16;97618.63;6237163;28;20132;-74
2023/08/14 03:09:10;;;;;;;11.93;5.55;;;;;;;16.19;51.24;97620.88;6227812;28;20037;-76
2023/08/14 03:12:16;;;;;;;10.65;4.45;;;;;;;16.29;50.98;97629.84;6231071;28;20049;-75
2023/08/14 03:15:22;;;;;;;12.77;6.15;;;;;;;16.43;51.14;97626.13;6225284;28;20045;-76
2023/08/14 03:18:29;;;;;;;13.95;4.93;;;;;;;16.49;50.78;97626.50;6225154;28;20186;-76
2023/08/14 03:21:33;;;;;;;11.10;4.35;;;;;;;16.66;50.29;97625.19;6222171;28;20037;-75
2023/08/14 03:24:37;;;;;;;9.98;5.00;;;;;;;16.84;50.08;97636.22;6226823;28;20046;-77
2023/08/14 03:27:43;;;;;;;12.43;4.97;;;;;;;16.98;49.41;97636.00;6232220;28;20057;-75
2023/08/14 03:30:45;;;;;;;7.85;4.03;;;;;;;17.14;48.89;97630.31;6228069;28;20040;-75
2023/08/14 03:33:46;;;;;;;13.55;4.47;;;;;;;17.30;48.46;97632.63;6229231;28;20049;-75
2023/08/14 03:36:47;;;;;;;13.63;5.05;;;;;;;17.62;48.43;97626.50;6224258;28;20033;-75
2023/08/14 03:39:54;;;;;;;7.60;3.80;;;;;;;17.81;47.68;97632.03;6224651;28;20045;-76
2023/08/14 03:42:57;;;;;;;7.28;3.72;;;;;;;17.93;47.05;97636.34;6228782;28;20045;-76
2023/08/14 03:46:01;;;;;;;7.40;3.33;;;;;;;18.13;46.58;97637.34;6224387;28;20045;-76
2023/08/14 03:49:06;;;;;;;9.02;3.35;;;;;;;18.31;44.91;97645.63;6225790;28;20064;-76
2023/08/14 03:52:09;;;;;;;11.73;3.92;;;;;;;18.37;44.31;97638.94;6226515;28;20061;-76
2023/08/14 03:55:13;;;;;;;5.45;2.63;;;;;;;18.60;43.46;97647.66;6229906;28;20132;-75
2023/08/14 03:58:20;;;;;;;5.28;2.92;;;;;;;18.71;43.66;97647.59;6231121;28;20107;-75
2023/08/14 04:01:24;;;;;;;6.13;2.58;;;;;;;18.97;41.76;97636.53;6222208;28;20056;-75
2023/08/14 04:04:28;;;;;;;3.20;2.25;;;;;;;19.12;40.73;97624.50;6226962;28;20034;-74
2023/08/14 04:07:33;;;;;;;3.95;2.30;;;;;;;19.31;39.88;97628.25;6224283;28;20129;-75
2023/08/14 04:10:38;;;;;;;3.40;2.30;;;;;;;19.43;39.88;97627.16;6207379;28;20135;-74
2023/08/14 04:13:44;;;;;;;5.05;2.45;;;;;;;19.61;39.38;97624.66;6227055;28;20108;-75
2023/08/14 04:16:48;;;;;;;3.72;2.03;;;;;;;19.64;39.40;97629.72;6205640;28;20046;-75
2023/08/14 04:19:52;;;;;;;6.47;2.67;;;;;;;19.82;38.97;97625.44;6232836;28;20089;-75
2023/08/14 04:22:57;;;;;;;5.45;2.28;;;;;;;20.00;38.18;97619.38;6224912;28;20055;-75
2023/08/14 04:26:02;;;;;;;7.18;2.78;;;;;;;20.12;37.94;97623.59;6224234;28;20124;-74
2023/08/14 04:29:08;;;;;;;4.47;2.63;;;;;;;20.28;37.95;97628.38;6225422;28;20149;-75
2023/08/14 04:32:13;;;;;;;6.15;2.70;;;;;;;20.40;37.47;97628.06;6204587;28;20049;-75
2023/08/14 04:35:17;;;;;;;5.60;1.92;;;;;;;20.60;37.12;97631.59;6212854;28;20041;-74
2023/08/14 04:38:22;;;;;;;4.90;2.28;;;;;;;20.80;36.23;97628.88;6213654;28;20076;-76
2023/08/14 04:41:28;;;;;;;7.32;2.70;;;;;;;20.94;36.39;97631.09;6223701;28;20088;-75
2023/08/14 04:44:33;;;;;;;5.13;2.78;;;;;;;21.07;35.86;97631.59;6222928;28;20098;-75
2023/08/14 04:47:37;;;;;;;5.88;2.85;;;;;;;21.13;35.88;97626.66;6230578;28;20037;-76
2023/08/14 04:50:42;;;;;;;5.82;2.75;;;;;;;21.17;36.14;97625.38;6224194;28;20095;-74
2023/08/14 04:53:46;;;;;;;5.90;2.40;;;;;;;21.30;36.20;97625.88;6210890;28;20140;-75
2023/08/14 04:56:50;;;;;;;7.20;2.97;;;;;;;22.70;34.31;97630.78;6212129;28;20071;-75
2023/08/14 04:59:54;;;;;;;5.10;2.55;;;;;;;27.41;28.45;97623.91;6225086;28;20136;-75
2023/08/14 05:02:59;;;;;;;5.05;2.50;;;;;;;32.45;22.50;97634.84;6226116;28;20107;-75
2023/08/14 05:06:03;;;;;;;5.32;2.80;;;;;;;35.98;18.85;97639.03;6223932;28;20048;-75
2023/08/14 05:09:08;;;;;;;3.70;2.08;;;;;;;38.61;16.38;97643.50;6230393;28;20128;-74
2023/08/14 05:12:13;;;;;;;5.88;2.30;;;;;;;40.28;14.86;97641.25;6230243;28;20160;-75
2023/08/14 05:15:17;;;;;;;3.60;1.80;;;;;;;42.11;13.11;97647.69;6230855;28;20206;-75
2023/08/14 05:18:22;;;;;;;4.55;1.75;;;;;;;43.08;12.52;97652.56;6224919;28;20093;-74
2023/08/14 05:21:27;;;;;;;3.20;1.67;;;;;;;44.45;11.82;97660.44;6228842;28;20072;-75
2023/08/14 05:24:31;;;;;;;5.85;2.50;;;;;;;45.94;10.51;97653.09;6223654;28;20180;-74
2023/08/14 05:27:38;;;;;;;4.63;2.20;;;;;;;47.09;9.82;97653.84;6227228;28;20505;-75
2023/08/14 05:30:44;;;;;;;3.90;1.80;;;;;;;48.37;9.05;97653.00;6232690;28;20219;-74
2023/08/14 05:33:50;;;;;;;6.15;2.25;;;;;;;49.07;8.47;97653.84;6219597;28;20508;-74
2023/08/14 05:36:55;;;;;;;4.22;2.08;;;;;;;49.50;8.11;97656.50;6206796;28;20093;-74
2023/08/14 05:40:00;;;;;;;5.05;1.58;;;;;;;50.12;7.71;97648.66;6229218;28;20172;-74
2023/08/14 05:43:07;;;;;;;4.57;2.28;;;;;;;50.35;7.08;97647.19;6226219;28;20042;-75
2023/08/14 05:46:11;;;;;;;6.85;2.13;;;;;;;50.46;7.44;97644.81;6233571;28;20049;-76
2023/08/14 05:49:17;;;;;;;10.15;2.00;;;;;;;50.11;7.43;97647.81;6222791;28;20132;-74
2023/08/14 05:52:20;;;;;;;5.93;2.00;;;;;;;50.32;7.40;97648.69;6222504;28;20131;-74
2023/08/14 05:55:25;;;;;;;2.13;1.60;;;;;;;50.79;6.99;97638.44;6220904;28;20045;-75
2023/08/14 05:58:29;;;;;;;3.53;1.48;;;;;;;51.30;6.94;97641.84;6224554;28;20102;-75
2023/08/14 06:01:34;;;;;;;8.05;2.35;;;;;;;51.41;6.35;97645.88;6221593;28;20124;-73
2023/08/14 06:04:38;;;;;;;3.17;1.40;;;;;;;51.05;6.63;97638.22;6222961;28;20476;-75
2023/08/14 06:07:45;;;;;;;2.88;1.30;;;;;;;50.35;6.90;97629.59;6223100;28;20129;-75
2023/08/14 06:10:50;;;;;;;2.80;1.33;;;;;;;49.68;7.26;97629.31;6221611;28;20148;-75
2023/08/14 06:13:55;;;;;;;5.07;1.48;;;;;;;49.73;7.30;97620.72;6221874;28;20056;-75
2023/08/14 06:17:02;;;;;;;4.07;2.08;;;;;;;50.49;6.93;97632.91;6226564;28;20136;-75
2023/08/14 06:20:07;;;;;;;6.75;2.15;;;;;;;51.03;6.76;97632.94;6229734;28;20141;-75
2023/08/14 06:23:12;;;;;;;2.10;1.20;;;;;;;51.61;6.15;97625.34;6219521;28;20129;-75
2023/08/14 06:26:16;;;;;;;4.57;1.20;;;;;;;50.59;6.21;97618.47;6223037;28;20053;-75
2023/08/14 06:29:21;;;;;;;2.55;1.10;;;;;;;49.25;6.83;97605.13;6223997;28;20179;-68
2023/08/14 06:32:26;;;;;;;2.13;1.15;;;;;;;50.32;6.89;97603.91;6227837;28;20045;-69
2023/08/14 06:35:31;;;;;;;7.65;1.77;;;;;;;51.37;6.37;97611.28;6230886;28;20072;-68
2023/08/14 06:38:36;;;;;;;2.03;1.10;;;;;;;51.48;5.86;97606.03;6224080;28;20068;-72
2023/08/14 06:41:41;;;;;;;1.35;0.90;;;;;;;51.35;5.99;97599.59;6223682;28;20048;-76
2023/08/14 06:44:46;;;;;;;1.65;1.20;;;;;;;51.76;6.20;97598.59;6234687;28;20176;-73
2023/08/14 06:47:51;;;;;;;2.72;1.35;;;;;;;51.65;5.93;97592.59;6207271;28;20497;-72
2023/08/14 06:50:57;;;;;;;2.05;1.33;;;;;;;52.73;5.35;97602.34;6220159;28;20070;-74
2023/08/14 06:54:02;;;;;;;2.85;1.30;;;;;;;53.71;5.87;97595.28;6226126;28;20135;-74
2023/08/14 06:57:07;;;;;;;3.15;1.15;;;;;;;54.64;4.97;97591.72;6229090;28;20052;-73
2023/08/14 07:00:12;;;;;;;2.88;1.10;;;;;;;54.81;4.96;97600.88;6243249;28;20069;-72
2023/08/14 07:03:17;;;;;;;1.10;0.70;;;;;;;54.38;5.22;97580.28;6240637;28;20068;-73
2023/08/14 07:06:21;;;;;;;1.42;0.80;;;;;;;53.08;5.02;97584.00;6227659;28;20136;-72
2023/08/14 07:09:25;;;;;;;1.55;0.77;;;;;;;52.43;5.23;97582.19;6230022;28;20034;-73
2023/08/14 07:12:30;;;;;;;2.15;1.10;;;;;;;52.17;5.54;97567.75;6227915;28;20162;-73
2023/08/14 07:15:35;;;;;;;2.03;0.80;;;;;;;52.22;5.53;97573.13;6230403;28;20511;-73
2023/08/14 07:18:39;;;;;;;3.75;1.00;;;;;;;52.82;5.62;97576.88;6231402;28;20041;-74
2023/08/14 07:21:44;;;;;;;2.42;1.13;;;;;;;53.12;5.54;97562.44;6230883;28;20135;-74
2023/08/14 07:24:49;;;;;;;2.10;1.00;;;;;;;53.05;5.29;97563.03;6233359;28;20037;-72
2023/08/14 07:27:54;;;;;;;2.25;1.05;;;;;;;53.78;5.27;97563.66;6231015;28;20547;-72
2023/08/14 07:30:59;;;;;;;2.33;0.90;;;;;;;53.35;5.08;97571.06;6218633;28;20048;-72
2023/08/14 07:34:07;;;;;;;0.95;0.73;;;;;;;52.10;5.81;97556.34;6234877;28;20049;-71
2023/08/14 07:37:12;;;;;;;1.52;0.90;;;;;;;52.74;5.40;97558.19;6220107;28;20069;-71
2023/08/14 07:40:17;;;;;;;2.78;1.00;;;;;;;53.27;5.27;97553.16;6222772;28;20122;-74
2023/08/14 07:43:23;;;;;;;2.30;0.95;;;;;;;52.98;5.67;97554.41;6220589;28;20132;-72
2023/08/14 07:46:28;;;;;;;2.10;1.88;;;;;;;53.62;4.95;97552.41;6227461;28;20048;-73
2023/08/14 07:49:36;;;;;;;1.33;0.90;;;;;;;53.99;4.58;97549.25;6228493;28;20050;-68
2023/08/14 07:52:42;;;;;;;1.70;0.90;;;;;;;54.23;4.64;97542.53;6223362;28;20219;-69
2023/08/14 07:55:49;;;;;;;1.13;0.88;;;;;;;54.07;4.94;97545.41;6208276;28;20033;-69
2023/08/14 07:58:54;;;;;;;2.70;0.70;;;;;;;54.48;4.65;97537.44;6228770;28;20092;-70
2023/08/14 08:01:59;;;;;;;2.10;1.20;;;;;;;55.12;4.47;97544.31;6225293;28;20048;-77
2023/08/14 08:05:03;;;;;;;2.90;1.17;;;;;;;54.35;4.49;97538.78;6226037;28;20115;-71
2023/08/14 08:08:07;;;;;;;2.08;1.40;;;;;;;54.52;4.17;97532.66;6228584;28;20452;-69
2023/08/14 08:11:12;;;;;;;2.25;1.23;;;;;;;54.31;4.21;97526.59;6225093;28;20319;-69
2023/08/14 08:14:17;;;;;;;5.05;1.25;;;;;;;53.93;4.42;97522.56;6221789;28;20183;-67
2023/08/14 08:17:21;;;;;;;1.75;1.00;;;;;;;54.19;4.29;97531.22;6229809;28;20136;-68
2023/08/14 08:20:25;;;;;;;1.10;0.70;;;;;;;53.78;4.57;97532.69;6233341;28;20048;-69
2023/08/14 08:23:29;;;;;;;1.55;0.80;;;;;;;53.73;4.29;97525.34;6209499;28;20061;-68
2023/08/14 08:26:34;;;;;;;2.13;1.80;;;;;;;53.92;4.50;97527.38;6224717;28;20646;-70
2023/08/14 08:29:38;;;;;;;4.05;3.10;;;;;;;54.20;4.27;97521.56;6230181;28;20073;-67
2023/08/14 08:32:44;;;;;;;1.00;0.90;;;;;;;54.48;4.46;97514.91;6227039;28;20540;-69
2023/08/14 08:35:48;;;;;;;1.05;0.93;;;;;;;54.55;4.81;97519.84;6230009;28;20175;-70
2023/08/14 08:38:52;;;;;;;0.93;0.70;;;;;;;54.46;4.77;97511.63;6227097;28;20135;-70
2023/08/14 08:41:58;;;;;;;3.00;1.10;;;;;;;54.40;4.73;97502.66;6219861;28;21937;-71
2023/08/14 08:45:06;;;;;;;3.75;0.88;;;;;;;54.25;5.03;97512.81;6227938;28;20191;-68
2023/08/14 08:48:13;;;;;;;0.80;0.70;;;;;;;53.55;4.78;97507.25;6220313;28;20091;-71
2023/08/14 08:51:17;;;;;;;1.60;1.08;;;;;;;51.87;5.34;97495.09;6228616;28;20049;-73
2023/08/14 08:54:21;;;;;;;1.05;0.82;;;;;;;50.08;5.86;97477.78;6224339;28;20128;-71
2023/08/14 08:57:26;;;;;;;2.50;1.15;;;;;;;49.43;6.39;97475.31;6224232;28;20133;-73
2023/08/14 09:00:32;;;;;;;2.00;0.90;;;;;;;49.80;6.20;97481.16;6231425;28;20144;-72
2023/08/14 09:03:39;;;;;;;3.28;1.00;;;;;;;49.95;6.01;97473.31;6224876;28;20128;-76
2023/08/14 09:06:44;;;;;;;2.08;0.98;;;;;;;50.07;6.03;97481.75;6225353;28;20432;-72
2023/08/14 09:09:48;;;;;;;1.85;0.93;;;;;;;49.47;6.59;97477.41;6211522;28;20050;-69
2023/08/14 09:12:53;;;;;;;2.67;1.42;;;;;;;48.40;6.60;97468.94;6221028;28;20196;-69
2023/08/14 09:15:56;;;;;;;1.42;1.10;;;;;;;48.25;7.10;97456.31;6228865;28;20512;-72
2023/08/14 09:19:00;;;;;;;1.20;0.90;;;;;;;48.13;6.93;97465.34;6223254;28;20102;-69
2023/08/14 09:22:05;;;;;;;2.95;1.30;;;;;;;47.86;7.42;97465.69;6221818;28;20041;-69
2023/08/14 09:25:10;;;;;;;1.65;1.00;;;;;;;48.33;6.51;97463.88;6219489;28;20042;-69
2023/08/14 09:28:18;;;;;;;2.67;1.08;;;;;;;48.37;6.58;97447.25;6224623;28;20677;-69
2023/08/14 09:31:22;;;;;;;2.00;0.90;;;;;;;48.45;6.97;97443.63;6222119;28;20132;-69
2023/08/14 09:34:30;;;;;;;3.38;2.45;;;;;;;49.06;6.18;97434.22;6224263;28;20132;-69
2023/08/14 09:37:35;;;;;;;1.70;1.30;;;;;;;49.41;6.26;97441.25;6222637;28;20128;-68
2023/08/14 09:40:42;;;;;;;1.02;0.73;;;;;;;48.70;6.72;97427.16;6219025;28;20577;-69
2023/08/14 09:43:49;;;;;;;1.92;1.00;;;;;;;48.01;7.03;97423.34;6225120;28;20125;-68
2023/08/14 09:46:54;;;;;;;2.28;0.95;;;;;;;47.58;6.86;97424.16;6210168;28;20052;-68
2023/08/14 09:49:59;;;;;;;2.25;0.90;;;;;;;47.50;6.81;97422.19;6227840;28;20041;-69
2023/08/14 09:53:03;;;;;;;1.90;0.90;;;;;;;47.69;6.53;97421.88;6232468;28;20088;-69
2023/08/14 09:56:08;;;;;;;1.20;0.80;;;;;;;47.22;6.98;97418.84;6207728;28;20444;-68
2023/08/14 09:59:12;;;;;;;1.25;0.90;;;;;;;46.68;6.96;97413.41;6221073;28;20167;-69
2023/08/14 10:02:17;;;;;;;1.63;0.70;;;;;;;46.74;6.76;97406.56;6235304;28;20053;-68
2023/08/14 10:05:23;;;;;;;1.00;0.57;;;;;;;46.99;6.51;97410.56;6232653;28;20172;-70
2023/08/14 10:08:34;;;;;;;2.72;0.95;;;;;;;47.82;6.47;97397.78;6218720;28;20415;-69
2023/08/14 10:11:39;;;;;;;1.38;0.90;;;;;;;47.96;6.58;97390.06;6223951;28;20184;-70
2023/08/14 10:14:53;;;;;;;2.75;1.00;;;;;;;47.82;6.46;97387.44;6221318;28;20188;-68
2023/08/14 10:18:04;;;;;;;2.30;0.70;;;;;;;47.13;6.83;97387.34;6220509;28;20054;-70
2023/08/14 10:21:15;;;;;;;1.20;1.00;;;;;;;46.61;7.49;97382.41;6210326;28;20311;-71
2023/08/14 10:24:20;;;;;;;0.85;0.75;;;;;;;46.49;6.93;97374.69;6221036;28;20045;-69
2023/08/14 10:27:26;;;;;;;3.80;1.42;;;;;;;46.42;7.25;97376.28;6227723;28;20542;-69
2023/08/14 10:30:31;;;;;;;2.58;1.20;;;;;;;45.58;7.52;97372.25;6227236;28;20045;-69
2023/08/14 10:33:38;;;;;;;1.98;0.75;;;;;;;44.91;7.60;97370.13;6233485;28;20560;-68
2023/08/14 10:36:42;;;;;;;1.27;0.80;;;;;;;44.05;8.13;97370.63;6225282;28;20115;-69
2023/08/14 10:39:50;;;;;;;0.95;0.60;;;;;;;43.67;8.09;97365.97;6230626;28;20183;-70
2023/08/14 10:43:00;;;;;;;2.25;0.85;;;;;;;44.11;8.03;97364.69;6227491;28;20132;-69
2023/08/14 10:46:13;;;;;;;2.10;0.95;;;;;;;44.44;7.64;97361.88;6226900;28;20120;-70
2023/08/14 10:49:18;;;;;;;1.02;0.70;;;;;;;43.85;8.24;97357.91;6222992;28;20129;-68
2023/08/14 10:52:25;;;;;;;1.17;0.88;;;;;;;42.48;9.05;97356.72;6225079;28;20128;-70
2023/08/14 10:55:42;;;;;;;1.58;0.80;;;;;;;41.69;9.79;97356.06;6234557;28;20178;-69
2023/08/14 10:58:50;;;;;;;1.67;1.00;;;;;;;41.28;9.99;97348.88;6224884;28;20076;-70
2023/08/14 11:02:09;;;;;;;2.35;1.13;;;;;;;41.61;9.47;97351.97;6224113;28;20544;-69
2023/08/14 11:05:17;;;;;;;1.52;1.05;;;;;;;41.64;9.76;97350.56;6228676;28;20038;-70
2023/08/14 11:08:21;;;;;;;1.40;0.90;;;;;;;41.17;10.17;97343.72;6227618;28;20108;-70
2023/08/14 11:11:27;;;;;;;1.38;0.90;;;;;;;41.21;10.10;97339.25;6228375;28;20531;-69
2023/08/14 11:14:34;;;;;;;2.90;1.13;;;;;;;41.26;9.99;97334.53;6231059;28;20175;-71
2023/08/14 11:17:39;;;;;;;0.90;0.75;;;;;;;41.54;9.34;97337.69;6233463;28;20041;-70
2023/08/14 11:20:45;;;;;;;1.63;0.70;;;;;;;41.64;9.45;97332.06;6227511;28;20598;-69
2023/08/14 11:23:49;;;;;;;5.78;3.92;;;;;;;41.88;9.49;97337.66;6205902;28;20083;-70
2023/08/14 11:26:57;;;;;;;2.35;1.42;;;;;;;43.44;9.14;97344.69;6225016;28;21074;-70
2023/08/14 11:30:04;;;;;;;2.03;0.90;;;;;;;43.50;8.96;97333.22;6224632;28;20535;-70
2023/08/14 11:33:09;;;;;;;2.38;0.95;;;;;;;42.45;9.29;97337.13;6234824;28;20489;-69
2023/08/14 11:36:14;;;;;;;2.75;1.33;;;;;;;42.02;9.42;97331.50;6229161;28;20137;-69
2023/08/14 11:39:19;;;;;;;1.98;1.25;;;;;;;41.38;10.17;97322.31;6226501;28;20457;-70
2023/08/14 11:42:25;;;;;;;2.40;1.13;;;;;;;40.64;10.79;97326.84;6232018;28;20045;-68
2023/08/14 11:45:30;;;;;;;2.65;1.17;;;;;;;40.31;11.13;97318.94;6227381;28;20538;-70
2023/08/14 11:48:38;;;;;;;4.47;1.10;;;;;;;39.87;11.29;97315.97;6226375;28;20559;-71
2023/08/14 11:51:46;;;;;;;1.00;0.73;;;;;;;39.26;11.38;97311.22;6222445;28;20044;-69
2023/08/14 11:54:51;;;;;;;3.88;1.02;;;;;;;38.98;11.54;97309.81;6232085;28;20168;-70
2023/08/14 11:57:59;;;;;;;3.90;1.50;;;;;;;38.51;12.49;97310.75;6226998;28;20571;-68
2023/08/14 12:01:07;;;;;;;2.55;1.40;;;;;;;38.04;12.46;97311.56;6231874;28;20046;-70
2023/08/14 12:04:12;;;;;;;2.05;1.30;;;;;;;37.88;12.84;97314.19;6224114;28;20128;-69
2023/08/14 12:07:18;;;;;;;1.67;1.00;;;;;;;37.63;12.88;97311.25;6226466;28;20104;-69
2023/08/14 12:10:23;;;;;;;1.33;1.00;;;;;;;37.39;13.00;97303.31;6223131;28;20120;-71
2023/08/14 12:13:31;;;;;;;6.13;2.88;;;;;;;37.36;13.28;97301.09;6223777;28;20077;-71
2023/08/14 12:16:41;;;;;;;2.03;1.70;;;;;;;37.36;12.95;97301.09;6212839;28;20484;-69
2023/08/14 12:19:57;;;;;;;1.75;0.80;;;;;;;37.20;13.01;97304.78;6225698;28;20071;-71
2023/08/14 12:23:14;;;;;;;1.38;1.05;;;;;;;37.01;13.52;97301.59;6229663;28;20038;-73
2023/08/14 12:26:17;;;;;;;1.17;1.00;;;;;;;36.77;13.61;97293.63;6230859;28;20077;-71
2023/08/14 12:29:23;;;;;;;1.90;1.17;;;;;;;36.58;13.83;97290.41;6231263;28;20103;-70
2023/08/14 12:32:27;;;;;;;9.60;5.82;;;;;;;36.47;14.05;97285.88;6220551;28;20044;-70
2023/08/14 12:35:32;;;;;;;3.03;1.70;;;;;;;36.41;13.82;97278.66;6224251;28;20185;-69
2023/08/14 12:38:39;;;;;;;2.70;1.50;;;;;;;36.20;14.50;97283.88;6229469;28;20146;-71
2023/08/14 12:41:44;;;;;;;1.75;1.15;;;;;;;36.08;14.13;97279.59;6222920;28;20695;-70
2023/08/14 12:44:50;;;;;;;2.38;1.42;;;;;;;36.00;14.38;97278.09;6224557;28;20179;-70
2023/08/14 12:47:55;;;;;;;7.10;2.00;;;;;;;35.52;15.19;97266.66;6236344;28;20056;-70
2023/08/14 12:50:59;;;;;;;3.35;1.70;;;;;;;35.41;14.88;97272.22;6223585;28;20041;-70
2023/08/14 12:54:03;;;;;;;1.83;1.10;;;;;;;35.28;15.27;97266.03;6225344;28;20086;-71
2023/08/14 12:57:09;;;;;;;1.98;1.30;;;;;;;34.82;15.26;97273.38;6222758;28;20576;-70
2023/08/14 13:00:12;;;;;;;3.58;1.10;;;;;;;34.49;15.57;97265.06;6226293;28;20123;-72
2023/08/14 13:03:17;;;;;;;2.00;1.38;;;;;;;34.08;15.80;97267.75;6220015;28;20311;-70
2023/08/14 13:06:22;;;;;;;1.80;1.35;;;;;;;33.94;16.23;97271.78;6224300;28;20133;-70
2023/08/14 13:09:27;;;;;;;4.13;3.08;;;;;;;33.67;16.14;97271.44;6225671;28;20210;-70
2023/08/14 13:12:31;;;;;;;2.75;1.95;;;;;;;33.53;16.33;97266.22;6224951;28;20064;-70
2023/08/14 13:15:34;;;;;;;3.10;1.70;;;;;;;33.43;16.58;97260.50;6210409;28;20464;-69
2023/08/14 13:18:39;;;;;;;2.63;1.60;;;;;;;33.26;17.10;97263.09;6219865;28;20152;-69
2023/08/14 13:21:44;;;;;;;1.52;1.02;;;;;;;33.03;17.38;97261.13;6220132;28;20132;-70
2023/08/14 13:24:48;;;;;;;2.33;1.80;;;;;;;32.65;17.27;97254.09;6212817;28;20042;-70
2023/08/14 13:27:52;;;;;;;1.60;1.38;;;;;;;32.48;17.62;97258.53;6226817;28;20180;-70
2023/08/14 13:30:57;;;;;;;2.85;1.15;;;;;;;32.37;17.65;97256.56;6227733;28;20199;-71
2023/08/14 13:34:04;;;;;;;1.75;1.33;;;;;;;32.27;18.17;97253.53;6223329;28;20059;-70
2023/08/14 13:37:07;;;;;;;1.83;1.55;;;;;;;32.21;17.94;97247.09;6221973;28;20191;-70
2023/08/14 13:40:12;;;;;;;1.85;1.08;;;;;;;32.04;18.20;97241.44;6226624;28;20171;-70
2023/08/14 13:43:19;;;;;;;1.95;1.20;;;;;;;31.84;18.50;97240.81;6224805;28;20137;-70
2023/08/14 13:46:24;;;;;;;1.50;1.40;;;;;;;31.76;18.72;97245.50;6226347;28;20582;-71
2023/08/14 13:49:26;;;;;;;2.85;1.52;;;;;;;31.69;18.68;97244.72;6222163;28;20128;-71
2023/08/14 13:52:30;;;;;;;5.32;1.70;;;;;;;31.59;18.81;97249.84;6228037;28;20412;-70
2023/08/14 13:55:36;;;;;;;2.53;1.60;;;;;;;31.53;18.79;97234.41;6219239;28;20040;-72
2023/08/14 13:58:45;;;;;;;1.40;1.30;;;;;;;31.61;18.88;97236.03;6220687;28;20045;-71
2023/08/14 14:01:52;;;;;;;3.08;1.70;;;;;;;31.51;19.19;97231.13;6209023;28;20045;-73
2023/08/14 14:04:57;;;;;;;2.38;1.70;;;;;;;31.31;19.17;97232.09;6219326;28;20034;-71
2023/08/14 14:08:02;;;;;;;2.60;1.40;;;;;;;31.17;19.39;97227.81;6220614;28;20046;-73
2023/08/14 14:11:08;;;;;;;2.25;1.33;;;;;;;31.12;19.65;97230.38;6222784;28;20045;-71
2023/08/14 14:14:16;;;;;;;2.65;1.40;;;;;;;30.99;19.75;97223.13;6230062;28;20144;-72
2023/08/14 14:17:21;;;;;;;3.10;1.85;;;;;;;30.86;20.12;97223.25;6223976;28;20387;-72
2023/08/14 14:20:24;;;;;;;5.72;2.00;;;;;;;30.71;20.37;97220.78;6225281;28;20053;-77
2023/08/14 14:23:26;;;;;;;3.40;2.20;;;;;;;30.62;20.49;97220.22;6217560;28;20558;-72
2023/08/14 14:26:29;;;;;;;5.15;2.17;;;;;;;30.47;20.47;97219.69;6221748;28;20140;-73
2023/08/14 14:29:31;;;;;;;5.40;2.67;;;;;;;30.35;20.70;97216.03;6225114;28;20048;-74
2023/08/14 14:32:38;;;;;;;3.50;1.65;;;;;;;30.24;20.92;97220.25;6226533;28;20041;-72
2023/08/14 14:35:39;;;;;;;14.52;7.10;;;;;;;30.11;21.28;97215.66;6198532;28;20129;-73
2023/08/14 14:38:42;;;;;;;5.95;4.35;;;;;;;29.94;21.17;97217.19;6219886;28;20164;-73